Gratiot, Wisconsin
Current Conditions -  °F | °C
As of 6:15 PM on Wednesday 26 Nov 2014 (Local Time) from KEFT Reporting Station
Haze Haze  
Wind Chill: 13°   Ceiling: 1000
Heat Index: 23°   Visibility: 5mi
Dew Point: 21°   Wind: 9mph
Humidity: 93%   Direction: 360°N
Pressure: 30.15"   Gusts: NA
Location:  42.58°N, 90.02°W
Report Text: KEFT 270015Z AUTO 36008KT 5SM BR OVC010 M05/M06 A3015 RMK AO2
Loading
Personal Weather Stations






























Interactive Weather Map New forecast layout! Learn more

10-Day Weather Forecast

Advertisements
Track Severe Weather on mobile